createdAt,value
2019-02-10T00:01:52.422Z,25.93
2019-02-10T00:04:25.795Z,24.97
2019-02-10T00:06:59.338Z,25.03
2019-02-10T00:09:33.602Z,24.37
2019-02-10T00:12:07.417Z,26.07
2019-02-10T00:14:40.642Z,22.73
2019-02-10T00:17:13.883Z,21.90
2019-02-10T00:19:47.253Z,22.47
2019-02-10T00:22:20.718Z,21.97
2019-02-10T00:24:54.043Z,23.57
2019-02-10T00:27:27.822Z,21.47
2019-02-10T00:30:01.210Z,22.63
2019-02-10T00:32:34.191Z,21.77
2019-02-10T00:35:07.509Z,20.97
2019-02-10T00:37:40.547Z,25.13
2019-02-10T00:40:14.226Z,24.40
2019-02-10T00:42:49.518Z,23.27
2019-02-10T00:45:23.066Z,23.93
2019-02-10T00:47:56.270Z,22.60
2019-02-10T00:50:29.496Z,22.83
2019-02-10T00:53:02.948Z,22.87
2019-02-10T00:55:36.133Z,22.23
2019-02-10T00:58:09.801Z,23.93
2019-02-10T01:00:42.988Z,23.83
2019-02-10T01:03:15.910Z,25.03
2019-02-10T01:05:49.160Z,24.43
2019-02-10T01:08:22.281Z,23.43
2019-02-10T01:10:57.180Z,26.87
2019-02-10T01:13:30.529Z,27.00
2019-02-10T01:16:03.549Z,29.33
2019-02-10T01:18:36.647Z,27.13
2019-02-10T01:21:09.839Z,26.40
2019-02-10T01:23:42.919Z,26.67
2019-02-10T01:26:16.015Z,30.67
2019-02-10T01:28:48.960Z,30.17
2019-02-10T01:31:22.289Z,27.33
2019-02-10T01:33:55.426Z,28.03
2019-02-10T01:36:28.424Z,26.77
2019-02-10T01:39:01.591Z,25.80
2019-02-10T01:41:34.672Z,26.83
2019-02-10T01:44:07.790Z,23.53
2019-02-10T01:46:40.858Z,23.13
2019-02-10T01:49:13.999Z,26.90
2019-02-10T01:51:47.199Z,26.90
2019-02-10T01:54:20.272Z,24.77
2019-02-10T01:56:53.674Z,27.70
2019-02-10T01:59:26.978Z,29.17
2019-02-10T02:02:00.294Z,28.00
2019-02-10T02:04:33.244Z,27.17
2019-02-10T02:07:06.615Z,24.27
2019-02-10T02:09:39.854Z,23.87
2019-02-10T02:12:13.335Z,26.10
2019-02-10T02:14:46.289Z,28.10
2019-02-10T02:17:19.393Z,25.60
2019-02-10T02:19:53.039Z,25.10
2019-02-10T02:22:27.810Z,27.13
2019-02-10T02:25:02.048Z,27.20
2019-02-10T02:27:35.265Z,26.13
2019-02-10T02:30:15.301Z,25.97
2019-02-10T02:32:48.900Z,26.03
2019-02-10T02:35:22.324Z,27.63
2019-02-10T02:37:55.505Z,26.43
2019-02-10T02:40:28.529Z,29.77
2019-02-10T02:43:01.769Z,29.63
2019-02-10T02:45:34.436Z,30.13
2019-02-10T02:48:07.693Z,27.97
2019-02-10T02:50:40.842Z,28.60
2019-02-10T02:53:14.993Z,26.17
2019-02-10T02:55:48.275Z,27.43
2019-02-10T02:58:21.330Z,30.20
2019-02-10T03:00:54.668Z,28.70
2019-02-10T03:03:28.689Z,28.67
2019-02-10T03:06:01.684Z,31.73
2019-02-10T03:08:34.546Z,29.93
2019-02-10T03:11:08.359Z,27.87
2019-02-10T03:13:41.471Z,29.03
2019-02-10T03:16:14.750Z,28.50
2019-02-10T03:18:52.981Z,35.20
2019-02-10T03:21:23.023Z,35.27
2019-02-10T03:23:56.002Z,33.67
2019-02-10T03:26:29.009Z,31.90
2019-02-10T03:29:03.382Z,32.77
2019-02-10T03:31:36.302Z,35.40
2019-02-10T03:34:09.560Z,32.77
2019-02-10T03:36:42.774Z,32.07
2019-02-10T03:39:16.018Z,31.27
2019-02-10T03:41:48.944Z,31.30
2019-02-10T03:44:22.106Z,30.43
2019-02-10T03:46:55.218Z,31.13
2019-02-10T03:49:28.061Z,30.30
2019-02-10T03:52:01.563Z,32.40
2019-02-10T03:54:34.910Z,30.93
2019-02-10T03:57:08.152Z,29.73
2019-02-10T03:59:40.949Z,32.50
2019-02-10T04:02:14.121Z,31.27
2019-02-10T04:04:46.999Z,34.27
2019-02-10T04:07:20.195Z,30.93
2019-02-10T04:09:53.278Z,29.13
2019-02-10T04:12:26.191Z,33.80
2019-02-10T04:14:59.287Z,33.23
2019-02-10T04:17:32.476Z,36.67
2019-02-10T04:20:05.500Z,36.60
2019-02-10T04:22:38.690Z,35.20
2019-02-10T04:25:12.103Z,33.00
2019-02-10T04:27:46.141Z,29.80
2019-02-10T04:30:19.020Z,30.40
2019-02-10T04:32:52.161Z,29.43
2019-02-10T04:35:25.410Z,28.23
2019-02-10T04:37:58.298Z,30.57
2019-02-10T04:40:31.486Z,37.67
2019-02-10T04:43:04.540Z,41.73
2019-02-10T04:45:37.685Z,38.97
2019-02-10T04:48:10.956Z,40.10
2019-02-10T04:50:44.109Z,30.53
2019-02-10T04:53:17.558Z,30.93
2019-02-10T04:56:17.826Z,32.87
2019-02-10T04:58:51.005Z,40.20
2019-02-10T05:01:24.095Z,33.73
2019-02-10T05:03:57.357Z,34.67
2019-02-10T05:06:30.504Z,31.73
2019-02-10T05:09:04.682Z,31.27
2019-02-10T05:11:38.158Z,35.80
2019-02-10T05:14:11.566Z,32.53
2019-02-10T05:16:45.068Z,32.07
2019-02-10T05:19:19.085Z,31.97
2019-02-10T05:21:52.047Z,37.50
2019-02-10T05:24:25.609Z,31.40
2019-02-10T05:26:58.899Z,28.70
2019-02-10T05:29:31.993Z,28.77
2019-02-10T05:32:05.544Z,26.63
2019-02-10T05:34:39.093Z,26.23
2019-02-10T05:37:12.568Z,26.90
2019-02-10T05:39:45.540Z,26.33
2019-02-10T05:42:18.633Z,27.47
2019-02-10T05:44:51.741Z,25.80
2019-02-10T05:47:25.238Z,27.30
2019-02-10T05:49:58.601Z,31.63
2019-02-10T05:52:32.698Z,29.07
2019-02-10T05:55:06.311Z,33.63
2019-02-10T05:57:40.405Z,36.57
2019-02-10T06:00:13.981Z,34.57
2019-02-10T06:02:47.122Z,35.03
2019-02-10T06:05:31.889Z,28.57
2019-02-10T06:08:13.070Z,28.07
2019-02-10T06:10:40.224Z,29.50
2019-02-10T06:13:13.543Z,30.53
2019-02-10T06:15:46.690Z,35.03
2019-02-10T06:18:20.003Z,34.43
2019-02-10T06:20:53.344Z,42.33
2019-02-10T06:23:27.302Z,38.67
2019-02-10T06:26:00.397Z,35.30
2019-02-10T06:28:34.768Z,35.23
2019-02-10T06:31:08.541Z,36.10
2019-02-10T06:33:42.141Z,33.80
2019-02-10T06:36:16.806Z,33.20
2019-02-10T06:38:50.127Z,32.07
2019-02-10T06:41:23.422Z,30.83
2019-02-10T06:43:56.694Z,33.20
2019-02-10T06:46:30.331Z,39.63
2019-02-10T06:49:04.000Z,37.07
2019-02-10T06:51:37.370Z,32.33
2019-02-10T06:54:10.772Z,24.33
2019-02-10T06:56:44.272Z,21.17
2019-02-10T06:59:39.313Z,21.60
2019-02-10T07:02:31.907Z,19.40
2019-02-10T07:05:05.492Z,22.83
2019-02-10T07:07:38.815Z,23.00
2019-02-10T07:10:12.285Z,22.10
2019-02-10T07:12:53.183Z,21.03
2019-02-10T07:16:19.564Z,23.50
2019-02-10T07:19:45.708Z,25.83
2019-02-10T07:23:25.946Z,36.60
2019-02-10T07:26:15.700Z,32.17
2019-02-10T07:32:24.339Z,28.40
2019-02-10T07:36:14.551Z,28.10
2019-02-10T07:39:57.794Z,30.03
2019-02-10T07:43:22.209Z,29.00
2019-02-10T07:46:50.125Z,27.20
2019-02-10T07:50:37.842Z,25.60
2019-02-10T07:53:57.528Z,25.43
2019-02-10T07:57:17.906Z,26.87
2019-02-10T08:00:20.913Z,25.67
2019-02-10T08:03:24.735Z,29.60
2019-02-10T08:06:55.737Z,31.73
2019-02-10T08:10:12.556Z,26.57
2019-02-10T08:13:18.612Z,25.40
2019-02-10T08:16:43.084Z,25.37
2019-02-10T08:19:59.724Z,27.10
2019-02-10T08:23:37.008Z,26.93
2019-02-10T08:27:07.805Z,26.90
2019-02-10T08:30:18.840Z,26.80
2019-02-10T08:33:51.585Z,25.73
2019-02-10T08:37:06.089Z,27.03
2019-02-10T08:40:34.365Z,24.53
2019-02-10T08:43:48.289Z,25.40
2019-02-10T08:47:04.358Z,25.03
2019-02-10T08:50:44.538Z,26.20
2019-02-10T08:53:37.121Z,25.50
2019-02-10T08:56:10.968Z,25.47
2019-02-10T08:58:44.334Z,25.73
2019-02-10T09:01:17.946Z,27.90
2019-02-10T09:03:51.182Z,28.17
2019-02-10T09:06:25.152Z,24.80
2019-02-10T09:09:02.599Z,26.07
2019-02-10T09:11:33.521Z,25.00
2019-02-10T09:14:06.921Z,26.53
2019-02-10T09:16:40.301Z,25.27
2019-02-10T09:19:13.890Z,24.43
2019-02-10T09:21:47.611Z,23.57
2019-02-10T09:24:20.984Z,24.77
2019-02-10T09:26:54.514Z,26.53
2019-02-10T09:29:27.941Z,25.50
2019-02-10T09:32:02.956Z,25.23
2019-02-10T09:34:36.178Z,26.03
2019-02-10T09:37:09.809Z,23.73
2019-02-10T09:39:43.093Z,24.30
2019-02-10T09:42:16.496Z,21.90
2019-02-10T09:44:49.878Z,21.37
2019-02-10T09:47:23.124Z,21.33
2019-02-10T09:49:56.176Z,20.47
2019-02-10T09:52:29.317Z,18.60
2019-02-10T09:55:04.345Z,17.20
2019-02-10T09:57:37.746Z,18.40
2019-02-10T10:00:14.098Z,14.63
2019-02-10T10:02:47.511Z,14.13
2019-02-10T10:05:21.002Z,16.03
2019-02-10T10:07:54.753Z,16.67
2019-02-10T10:10:29.938Z,8.10
2019-02-10T10:13:03.488Z,5.70
2019-02-10T10:15:37.075Z,5.40
2019-02-10T10:18:10.291Z,5.60
2019-02-10T10:20:44.276Z,5.73
2019-02-10T10:23:17.591Z,4.70
2019-02-10T10:25:50.669Z,4.47
2019-02-10T10:28:23.954Z,4.80
2019-02-10T10:30:57.049Z,5.90
2019-02-10T10:33:31.854Z,5.00
2019-02-10T10:36:05.521Z,6.20
2019-02-10T10:38:39.170Z,5.90
2019-02-10T10:41:12.455Z,6.90
2019-02-10T10:43:45.906Z,5.57
2019-02-10T10:46:19.646Z,4.67
2019-02-10T10:48:53.496Z,5.70
2019-02-10T10:51:27.024Z,5.00
2019-02-10T10:54:00.745Z,4.60
2019-02-10T10:56:34.184Z,5.40
2019-02-10T10:59:07.777Z,5.43
2019-02-10T11:01:41.014Z,4.87
2019-02-10T11:04:14.424Z,5.80
2019-02-10T11:06:47.841Z,4.97
2019-02-10T11:09:21.253Z,5.13
2019-02-10T11:11:55.113Z,6.50
2019-02-10T11:14:28.933Z,4.70
2019-02-10T11:17:02.478Z,4.77
2019-02-10T11:19:35.944Z,5.30
2019-02-10T11:22:10.018Z,4.73
2019-02-10T11:24:43.723Z,5.53
2019-02-10T11:27:17.769Z,4.60
2019-02-10T11:29:51.222Z,5.83
2019-02-10T11:32:25.167Z,5.43
2019-02-10T11:35:09.401Z,5.17
2019-02-10T11:37:42.955Z,5.30
2019-02-10T11:40:16.316Z,5.70
2019-02-10T11:42:49.657Z,5.43
2019-02-10T11:45:22.786Z,5.40
2019-02-10T11:47:56.523Z,5.50
2019-02-10T11:50:30.276Z,5.57
2019-02-10T11:53:03.754Z,5.40
2019-02-10T11:55:39.286Z,5.57
2019-02-10T11:58:13.067Z,5.97
2019-02-10T12:00:46.498Z,5.70
2019-02-10T12:03:19.665Z,4.90
2019-02-10T12:05:53.094Z,5.67
2019-02-10T12:08:35.347Z,5.67
2019-02-10T12:11:02.978Z,5.30
2019-02-10T12:13:38.583Z,5.53
2019-02-10T12:16:11.764Z,6.67
2019-02-10T12:18:46.545Z,5.47
2019-02-10T12:21:19.813Z,6.00
2019-02-10T12:23:53.065Z,5.97
2019-02-10T12:26:26.332Z,5.53
2019-02-10T12:28:59.714Z,5.90
2019-02-10T12:31:33.505Z,5.93
2019-02-10T12:34:06.775Z,6.30
2019-02-10T12:36:40.162Z,5.83
2019-02-10T12:39:13.824Z,5.93
2019-02-10T12:41:47.503Z,5.23
2019-02-10T12:44:20.820Z,5.07
2019-02-10T12:46:55.388Z,5.37
2019-02-10T12:49:28.613Z,5.67
2019-02-10T12:52:02.364Z,5.23
2019-02-10T12:54:35.444Z,5.53
2019-02-10T12:57:08.289Z,5.23
2019-02-10T12:59:41.770Z,5.53
2019-02-10T13:02:15.784Z,5.53
2019-02-10T13:04:50.178Z,5.13
2019-02-10T13:07:24.541Z,5.80
2019-02-10T13:09:58.868Z,5.13
2019-02-10T13:12:39.753Z,5.00
2019-02-10T13:15:13.808Z,5.37
2019-02-10T13:17:47.409Z,5.93
2019-02-10T13:20:20.589Z,5.47
2019-02-10T13:22:55.520Z,5.23
2019-02-10T13:25:29.047Z,5.57
2019-02-10T13:28:02.832Z,5.63
2019-02-10T13:30:36.142Z,5.47
2019-02-10T13:33:09.302Z,4.90
2019-02-10T13:35:42.745Z,4.70
2019-02-10T13:38:16.595Z,4.97
2019-02-10T13:40:52.404Z,5.03
2019-02-10T13:43:33.212Z,5.40
2019-02-10T13:46:02.175Z,4.93
2019-02-10T13:48:35.905Z,5.10
2019-02-10T13:51:09.383Z,4.73
2019-02-10T13:53:42.927Z,4.47
2019-02-10T13:56:16.480Z,4.53
2019-02-10T13:58:50.066Z,5.70
2019-02-10T14:01:23.274Z,5.90
2019-02-10T14:03:56.914Z,5.07
2019-02-10T14:06:30.310Z,4.90
2019-02-10T14:09:06.178Z,4.67
2019-02-10T14:11:39.930Z,4.60
2019-02-10T14:14:13.624Z,5.37
2019-02-10T14:16:49.026Z,5.53
2019-02-10T14:19:22.657Z,7.07
2019-02-10T14:21:56.283Z,13.27
2019-02-10T14:24:29.872Z,6.57
2019-02-10T14:27:02.841Z,7.53
2019-02-10T14:29:35.890Z,9.83
2019-02-10T14:32:09.609Z,8.83
2019-02-10T14:34:45.089Z,8.97
2019-02-10T14:37:18.312Z,11.30
2019-02-10T14:39:52.148Z,8.73
2019-02-10T14:42:25.707Z,10.53
2019-02-10T14:44:59.537Z,7.53
2019-02-10T14:47:32.703Z,6.57
2019-02-10T14:50:07.126Z,5.23
2019-02-10T14:52:40.266Z,6.73
2019-02-10T14:55:13.679Z,5.70
2019-02-10T14:57:47.077Z,5.67
2019-02-10T15:00:20.711Z,6.73
2019-02-10T15:02:54.124Z,6.30
2019-02-10T15:05:27.578Z,7.77
2019-02-10T15:08:00.706Z,8.17
2019-02-10T15:10:41.833Z,9.17
2019-02-10T15:13:09.762Z,9.03
2019-02-10T15:15:42.966Z,9.60
2019-02-10T15:18:16.434Z,68.33
2019-02-10T15:20:50.090Z,35.73
2019-02-10T15:23:23.722Z,24.00
2019-02-10T15:25:56.785Z,15.47
2019-02-10T15:28:30.062Z,8.47
2019-02-10T15:31:03.519Z,7.47
2019-02-10T15:33:38.043Z,5.77
2019-02-10T15:36:11.634Z,6.13
2019-02-10T15:38:45.776Z,6.73
2019-02-10T15:41:19.142Z,15.60
2019-02-10T15:43:52.273Z,7.67
2019-02-10T15:46:25.610Z,8.00
2019-02-10T15:48:59.379Z,16.30
2019-02-10T15:51:37.290Z,20.23
2019-02-10T15:54:10.354Z,27.60
2019-02-10T15:56:44.214Z,15.27
2019-02-10T15:59:20.872Z,12.87
2019-02-10T16:01:57.015Z,14.77
2019-02-10T16:04:30.545Z,11.00
2019-02-10T16:07:04.669Z,10.30
2019-02-10T16:09:38.995Z,8.10
2019-02-10T16:12:12.239Z,8.57
2019-02-10T16:14:45.281Z,8.27
2019-02-10T16:17:20.232Z,9.83
2019-02-10T16:19:58.747Z,9.27
2019-02-10T16:22:32.037Z,14.23
2019-02-10T16:25:05.581Z,15.60
2019-02-10T16:27:42.105Z,12.60
2019-02-10T16:30:16.164Z,14.23
2019-02-10T16:32:50.253Z,16.40
2019-02-10T16:35:23.549Z,14.97
2019-02-10T16:37:56.715Z,18.87
2019-02-10T16:40:30.206Z,11.50
2019-02-10T16:43:03.500Z,9.80
2019-02-10T16:45:39.174Z,10.13
2019-02-10T16:48:12.910Z,11.10
2019-02-10T16:50:46.192Z,9.43
2019-02-10T16:53:18.938Z,8.80
2019-02-10T16:55:51.905Z,8.33
2019-02-10T16:58:25.246Z,9.27
2019-02-10T17:00:58.411Z,8.57
2019-02-10T17:03:31.433Z,7.77
2019-02-10T17:06:04.632Z,7.10
2019-02-10T17:08:38.282Z,6.97
2019-02-10T17:11:14.363Z,7.87
2019-02-10T17:13:47.828Z,7.83
2019-02-10T17:16:21.594Z,7.37
2019-02-10T17:18:54.969Z,7.80
2019-02-10T17:21:28.477Z,7.93
2019-02-10T17:24:01.893Z,8.57
2019-02-10T17:26:35.082Z,8.03
2019-02-10T17:29:08.390Z,7.80
2019-02-10T17:31:41.900Z,7.37
2019-02-10T17:34:15.784Z,7.70
2019-02-10T17:36:49.211Z,7.80
2019-02-10T17:39:24.896Z,7.57
2019-02-10T17:41:57.857Z,10.00
2019-02-10T17:44:32.330Z,8.07
2019-02-10T17:47:07.193Z,8.30
2019-02-10T17:49:41.108Z,8.70
2019-02-10T17:52:15.105Z,9.03
2019-02-10T17:54:49.095Z,7.97
2019-02-10T17:57:22.232Z,8.03
2019-02-10T17:59:55.150Z,8.80
2019-02-10T18:02:28.165Z,8.53
2019-02-10T18:05:01.828Z,7.60
2019-02-10T18:07:34.925Z,8.00
2019-02-10T18:10:09.192Z,7.63
2019-02-10T18:12:44.858Z,6.70
2019-02-10T18:15:36.097Z,7.47
2019-02-10T18:18:21.213Z,7.37
2019-02-10T18:21:16.554Z,8.10
2019-02-10T18:24:18.249Z,7.30
2019-02-10T18:27:10.627Z,8.00
2019-02-10T18:30:09.995Z,8.27
2019-02-10T18:32:51.637Z,7.90
2019-02-10T18:35:42.276Z,7.60
2019-02-10T18:38:39.039Z,8.90
2019-02-10T18:41:29.303Z,8.63
2019-02-10T18:44:25.273Z,8.33
2019-02-10T18:47:23.578Z,10.47
2019-02-10T18:50:19.589Z,10.00
2019-02-10T18:53:12.200Z,10.00
2019-02-10T18:55:53.291Z,11.60
2019-02-10T18:58:54.428Z,18.67
2019-02-10T19:01:41.743Z,22.03
2019-02-10T19:04:33.841Z,28.87
2019-02-10T19:07:24.957Z,33.83
2019-02-10T19:10:27.685Z,35.03
2019-02-10T19:13:10.003Z,40.80
2019-02-10T19:16:01.114Z,35.90
2019-02-10T19:18:44.444Z,36.33
2019-02-10T19:21:33.104Z,35.40
2019-02-10T19:24:35.770Z,28.93
2019-02-10T19:27:36.684Z,25.73
2019-02-10T19:30:46.096Z,53.27
2019-02-10T19:33:44.349Z,54.93
2019-02-10T19:36:35.985Z,40.17
2019-02-10T19:39:25.314Z,44.77
2019-02-10T19:42:17.386Z,42.30
2019-02-10T19:45:10.412Z,36.70
2019-02-10T19:48:15.248Z,34.87
2019-02-10T19:51:06.471Z,32.03
2019-02-10T19:53:51.047Z,31.50
2019-02-10T19:56:36.836Z,37.47
2019-02-10T19:59:37.921Z,40.10
2019-02-10T20:02:23.196Z,38.10
2019-02-10T20:05:24.265Z,35.50
2019-02-10T20:08:15.116Z,35.87
2019-02-10T20:11:19.193Z,36.37
2019-02-10T20:14:00.952Z,37.67
2019-02-10T20:16:56.101Z,37.43
2019-02-10T20:20:02.935Z,38.00
2019-02-10T20:23:04.043Z,35.63
2019-02-10T20:25:49.148Z,45.30
2019-02-10T20:28:39.599Z,42.07
2019-02-10T20:31:40.509Z,36.80
2019-02-10T20:34:33.407Z,39.47
2019-02-10T20:37:28.973Z,36.87
2019-02-10T20:40:20.281Z,32.63
2019-02-10T20:43:24.463Z,34.87
2019-02-10T20:46:14.091Z,34.03
2019-02-10T20:49:09.958Z,34.33
2019-02-10T20:52:08.268Z,41.37
2019-02-10T20:55:05.207Z,39.77
2019-02-10T20:58:00.349Z,31.13
2019-02-10T21:00:53.048Z,30.17
2019-02-10T21:03:44.287Z,34.97
2019-02-10T21:06:50.379Z,33.07
2019-02-10T21:09:42.262Z,29.63
2019-02-10T21:12:37.235Z,30.67
2019-02-10T21:15:32.976Z,34.33
2019-02-10T21:18:13.232Z,27.80
2019-02-10T21:21:07.587Z,33.63
2019-02-10T21:24:08.496Z,35.17
2019-02-10T21:26:58.886Z,34.57
2019-02-10T21:29:51.426Z,32.83
2019-02-10T21:32:46.437Z,28.60
2019-02-10T21:35:35.457Z,35.07
2019-02-10T21:38:30.386Z,32.37
2019-02-10T21:41:25.352Z,34.90
2019-02-10T21:44:20.700Z,32.80
2019-02-10T21:47:05.219Z,33.97
2019-02-10T21:49:38.238Z,32.23
2019-02-10T21:52:11.380Z,30.40
2019-02-10T21:54:44.548Z,34.07
2019-02-10T21:57:17.912Z,35.50
2019-02-10T21:59:51.572Z,35.23
2019-02-10T22:02:24.889Z,35.93
2019-02-10T22:04:58.316Z,33.23
2019-02-10T22:07:31.414Z,26.53
2019-02-10T22:10:05.371Z,27.27
2019-02-10T22:12:40.726Z,27.10
2019-02-10T22:15:14.257Z,28.10
2019-02-10T22:17:47.337Z,28.93
2019-02-10T22:20:20.282Z,27.03
2019-02-10T22:22:53.562Z,27.23
2019-02-10T22:25:26.591Z,24.63
2019-02-10T22:27:59.987Z,23.67
2019-02-10T22:30:33.196Z,24.83
2019-02-10T22:33:06.189Z,25.80
2019-02-10T22:35:39.333Z,24.73
2019-02-10T22:38:12.539Z,24.83
2019-02-10T22:40:45.999Z,25.07
2019-02-10T22:43:19.005Z,26.87
2019-02-10T22:45:54.026Z,25.13
2019-02-10T22:48:27.403Z,25.97
2019-02-10T22:51:00.434Z,27.00
2019-02-10T22:53:33.475Z,25.97
2019-02-10T22:56:06.620Z,25.23
2019-02-10T22:58:39.744Z,23.60
2019-02-10T23:01:12.799Z,26.27
2019-02-10T23:03:45.868Z,24.57
2019-02-10T23:06:19.338Z,25.83
2019-02-10T23:08:52.426Z,24.90
2019-02-10T23:11:25.802Z,24.70
2019-02-10T23:13:58.969Z,24.83
2019-02-10T23:16:32.041Z,24.03
2019-02-10T23:19:05.107Z,23.67
2019-02-10T23:21:38.223Z,23.70
2019-02-10T23:24:11.189Z,23.90
2019-02-10T23:26:44.386Z,23.40
2019-02-10T23:29:17.638Z,23.57
2019-02-10T23:31:52.053Z,23.63
2019-02-10T23:34:25.264Z,23.13
2019-02-10T23:36:58.598Z,27.97
2019-02-10T23:39:31.483Z,27.63
2019-02-10T23:42:04.604Z,25.67
2019-02-10T23:44:37.846Z,28.33
2019-02-10T23:47:10.830Z,28.30
2019-02-10T23:49:44.323Z,27.53
2019-02-10T23:52:17.184Z,26.63
2019-02-10T23:54:50.136Z,24.10
2019-02-10T23:57:23.018Z,25.60
2019-02-10T23:59:56.486Z,25.43
